Casbas, Argentina
Current Conditions -  °F | °C
As of 1:00 AM on Saturday 01 Nov 2014 (Local Time) from SAEZ Reporting Station
Broken Clouds Broken Clouds  
Wind Chill: 55°   Ceiling: 6000
Heat Index: 55°   Visibility: 6mi
Dew Point: 43°   Wind: 16mph
Humidity: 63%   Direction: 160°SSE
Pressure: 30.12"   Gusts: NA
Location:  36.73°S, 62.41°W
Report Text: SAEZ 010400Z 16014KT 9999 FEW045 BKN060 13/06 Q1020
Loading
Personal Weather Stations






























Interactive Weather Map
Tropical Storm Tracking
New forecast layout! Learn more

10-Day Weather Forecast

Advertisements
Track Severe Weather on mobile